Time;durP1;ratioP1;P1;durP2;ratioP2;P2;SDS_P1;SDS_P2;PMS_P1;PMS_P2;Temp;Humidity;BMP_temperature;BMP_pressure;BME280_temperature;BME280_humidity;BME280_pressure;Samples;Min_cycle;Max_cycle;Signal;HPM_P1;HPM_P2
2023/09/12 00:09:32;;;;;;;3.78;2.38;;;;;;;;;;20961089;28;20230;-71
2023/09/12 00:19:35;;;;;;;4.40;2.55;;;23.90;99.90;;;;;;20928062;28;20219;-71
2023/09/12 00:29:36;;;;;;;3.13;2.45;;;;;;;;;;20957282;28;20278;-71
2023/09/12 00:39:38;;;;;;;4.75;2.70;;;;;;;;;;20959836;28;20279;-71
2023/09/12 00:49:40;;;;;;;3.35;2.22;;;;;;;;;;20950658;28;20494;-71
2023/09/12 00:59:43;;;;;;;3.28;2.35;;;;;;;;;;20959997;28;20220;-71
2023/09/12 01:09:45;;;;;;;3.88;2.30;;;23.50;99.90;;;;;;20967481;28;20245;-71
2023/09/12 01:19:48;;;;;;;5.38;2.58;;;;;;;;;;20942083;28;20797;-71
2023/09/12 01:29:51;;;;;;;3.40;2.20;;;;;;;;;;20951697;28;20228;-71
2023/09/12 01:39:53;;;;;;;4.68;2.60;;;;;;;;;;20956662;28;20574;-70
2023/09/12 01:49:58;;;;;;;3.90;2.47;;;23.20;99.90;;;;;;20955553;28;20293;-71
2023/09/12 02:00:00;;;;;;;3.42;2.10;;;;;;;;;;20938464;28;20845;-71
2023/09/12 02:10:04;;;;;;;4.55;2.50;;;;;;;;;;20952895;28;20289;-71
2023/09/12 02:20:08;;;;;;;3.28;2.25;;;;;;;;;;20943152;28;20229;-71
2023/09/12 02:30:10;;;;;;;7.05;2.90;;;;;;;;;;20949467;28;20222;-71
2023/09/12 02:40:14;;;;;;;3.88;2.28;;;;;;;;;;20957056;28;20711;-71
2023/09/12 02:50:16;;;;;;;3.83;2.33;;;;;;;;;;20941069;28;20223;-71
2023/09/12 03:00:19;;;;;;;2.80;2.08;;;;;;;;;;20950801;28;20260;-71
2023/09/12 03:10:21;;;;;;;3.42;2.20;;;;;;;;;;20940027;28;20587;-71
2023/09/12 03:20:23;;;;;;;3.28;2.25;;;;;;;;;;20943827;28;20240;-71
2023/09/12 03:30:25;;;;;;;3.53;2.10;;;;;;;;;;20982980;22;20225;-72
2023/09/12 03:40:31;;;;;;;4.38;2.50;;;22.50;99.90;;;;;;20973331;28;20282;-73
2023/09/12 03:50:33;;;;;;;4.82;2.63;;;;;;;;;;21015315;28;20286;-72
2023/09/12 04:00:35;;;;;;;4.45;2.47;;;;;;;;;;21027339;28;20215;-74
2023/09/12 04:10:37;;;;;;;4.00;2.35;;;;;;;;;;21014875;28;20275;-73
2023/09/12 04:20:39;;;;;;;2.95;2.10;;;;;;;;;;21037467;28;20218;-73
2023/09/12 04:30:41;;;;;;;3.53;2.22;;;;;;;;;;21045915;28;20226;-72
2023/09/12 04:40:44;;;;;;;3.80;2.88;;;;;;;;;;21061822;28;20233;-73
2023/09/12 04:50:46;;;;;;;3.97;2.72;;;;;;;;;;21045734;28;20227;-72
2023/09/12 05:00:47;;;;;;;3.75;2.28;;;;;;;;;;21023156;28;20210;-73
2023/09/12 05:10:49;;;;;;;4.55;2.22;;;;;;;;;;21029661;28;20275;-72
2023/09/12 05:20:52;;;;;;;5.05;2.60;;;;;;;;;;21007234;28;20580;-72
2023/09/12 05:30:53;;;;;;;4.20;2.80;;;;;;;;;;21029399;28;20279;-72
2023/09/12 05:40:57;;;;;;;4.93;2.80;;;;;;;;;;21040685;28;20217;-72
2023/09/12 05:50:59;;;;;;;8.85;2.88;;;;;;;;;;21040048;28;20222;-72
2023/09/12 06:01:01;;;;;;;7.97;3.05;;;;;;;;;;21039733;28;20224;-72
2023/09/12 06:11:04;;;;;;;7.90;3.33;;;;;;;;;;21042335;28;20286;-72
2023/09/12 06:21:08;;;;;;;6.30;2.95;;;;;;;;;;21038501;28;20219;-72
2023/09/12 06:31:10;;;;;;;5.57;2.70;;;;;;;;;;21036980;28;20216;-72
2023/09/12 06:41:12;;;;;;;2.72;1.95;;;;;;;;;;21032814;28;20279;-72
2023/09/12 06:51:14;;;;;;;5.35;2.35;;;22.60;99.90;;;;;;21054385;28;20254;-72
2023/09/12 07:01:16;;;;;;;4.07;2.30;;;;;;;;;;21057965;28;20219;-72
2023/09/12 07:11:19;;;;;;;5.13;2.95;;;;;;;;;;21052490;28;20216;-73
2023/09/12 07:21:21;;;;;;;4.20;2.47;;;;;;;;;;21051843;28;20279;-72
2023/09/12 07:31:23;;;;;;;2.83;2.13;;;;;;;;;;21066879;28;20246;-73
2023/09/12 07:41:24;;;;;;;3.83;2.50;;;;;;;;;;21033450;28;20217;-73
2023/09/12 07:51:27;;;;;;;3.63;2.40;;;;;;;;;;21045232;28;20237;-73
2023/09/12 08:01:29;;;;;;;3.58;2.50;;;;;;;;;;21048629;28;20274;-72
2023/09/12 08:11:30;;;;;;;4.10;2.35;;;;;;;;;;21029824;28;20234;-73
2023/09/12 08:21:32;;;;;;;6.40;2.85;;;;;;;;;;21041809;28;20221;-73
2023/09/12 08:31:34;;;;;;;4.80;2.40;;;;;;;;;;21042803;28;20706;-73
2023/09/12 08:41:36;;;;;;;2.88;2.13;;;;;;;;;;21061841;28;20225;-73
2023/09/12 08:51:42;;;;;;;5.28;2.35;;;25.00;99.90;;;;;;21060223;28;20229;-73
2023/09/12 09:01:44;;;;;;;3.47;2.25;;;25.20;99.90;;;;;;21030979;28;20211;-73
2023/09/12 09:11:46;;;;;;;3.53;2.38;;;;;;;;;;21036763;28;20219;-73
2023/09/12 09:21:48;;;;;;;4.80;2.70;;;;;;;;;;21062835;28;20264;-73
2023/09/12 09:31:51;;;;;;;3.13;2.30;;;;;;;;;;21050060;22;20272;-77
2023/09/12 09:41:54;;;;;;;3.13;1.92;;;25.90;99.90;;;;;;21052507;28;20211;-77
2023/09/12 09:51:58;;;;;;;3.00;2.30;;;;;;;;;;21067402;28;20239;-77
2023/09/12 10:02:00;;;;;;;2.92;2.15;;;26.00;99.90;;;;;;21018844;28;20226;-77
2023/09/12 10:12:02;;;;;;;3.33;2.50;;;;;;;;;;21072125;28;20216;-78
2023/09/12 10:22:10;;;;;;;6.00;2.40;;;;;;;;;;21055051;28;20211;-77
2023/09/12 10:32:12;;;;;;;6.60;2.50;;;;;;;;;;21058666;28;20286;-77
2023/09/12 10:42:15;;;;;;;3.58;2.38;;;27.10;99.90;;;;;;21064417;28;20216;-77
2023/09/12 10:52:26;;;;;;;4.72;2.00;;;27.30;99.90;;;;;;21052729;28;20227;-78
2023/09/12 11:02:29;;;;;;;3.70;2.03;;;;;;;;;;21077521;28;20206;-77
2023/09/12 11:12:37;;;;;;;3.35;1.95;;;;;;;;;;21052598;28;20802;-77
2023/09/12 11:22:40;;;;;;;3.53;2.13;;;;;;;;;;21057293;28;20210;-78
2023/09/12 11:32:44;;;;;;;3.85;2.05;;;;;;;;;;21058760;28;20272;-77
2023/09/12 11:42:47;;;;;;;2.85;1.85;;;;;;;;;;21068364;28;20651;-76
2023/09/12 11:52:49;;;;;;;2.70;1.52;;;;;;;;;;21050759;28;20642;-78
2023/09/12 12:02:51;;;;;;;5.00;2.10;;;;;;;;;;21041811;28;20228;-78
2023/09/12 12:12:54;;;;;;;2.42;1.90;;;;;;;;;;21072787;28;20712;-79
2023/09/12 12:22:55;;;;;;;2.70;2.00;;;;;;;;;;21071464;28;20265;-79
2023/09/12 12:32:57;;;;;;;4.25;2.22;;;;;;;;;;21045545;28;20224;-78
2023/09/12 12:42:59;;;;;;;2.50;1.90;;;;;;;;;;21058753;28;20265;-77
2023/09/12 12:53:01;;;;;;;2.08;1.60;;;;;;;;;;21076276;28;20224;-77
2023/09/12 13:03:03;;;;;;;3.85;2.20;;;;;;;;;;21070170;28;20240;-77
2023/09/12 13:13:04;;;;;;;2.72;1.95;;;;;;;;;;21041467;28;20599;-79
2023/09/12 13:23:06;;;;;;;3.15;2.10;;;;;;;;;;21078382;28;20281;-79
2023/09/12 13:33:08;;;;;;;3.50;2.30;;;;;;;;;;21060888;28;20273;-78
2023/09/12 13:43:10;;;;;;;4.03;2.03;;;;;;;;;;21072146;28;20236;-78
2023/09/12 13:53:12;;;;;;;3.80;2.00;;;;;;;;;;21074075;28;20209;-78
2023/09/12 14:03:14;;;;;;;2.35;1.90;;;;;;;;;;21064271;28;20685;-78
2023/09/12 14:13:16;;;;;;;2.08;1.85;;;;;;;;;;21053284;28;20262;-78
2023/09/12 14:23:18;;;;;;;2.33;2.00;;;;;;;;;;21077743;28;20669;-78
2023/09/12 14:33:19;;;;;;;3.25;2.15;;;;;;;;;;21071009;28;20701;-76
2023/09/12 14:43:23;;;;;;;4.15;1.92;;;;;;;;;;21070173;28;20262;-76
2023/09/12 14:53:24;;;;;;;3.90;1.80;;;;;;;;;;21067420;28;20224;-77
2023/09/12 15:03:26;;;;;;;4.07;2.15;;;;;;;;;;21065461;28;20604;-77
2023/09/12 15:13:28;;;;;;;3.35;1.85;;;;;;;;;;21052587;28;20220;-77
2023/09/12 15:23:30;;;;;;;2.03;1.73;;;;;;;;;;21055477;28;20212;-77
2023/09/12 15:33:32;;;;;;;2.30;1.92;;;;;;;;;;21075431;22;20301;-72
2023/09/12 15:43:34;;;;;;;4.20;2.15;;;;;;;;;;21080236;28;20217;-72
2023/09/12 15:53:36;;;;;;;3.83;1.70;;;;;;;;;;21036306;28;20220;-71
2023/09/12 16:03:38;;;;;;;2.65;1.65;;;;;;;;;;21048659;28;20216;-73
2023/09/12 16:13:39;;;;;;;3.45;1.40;;;;;;;;;;21046064;28;20638;-70
2023/09/12 16:23:41;;;;;;;4.65;2.30;;;;;;;;;;21035667;28;20646;-70
2023/09/12 16:33:43;;;;;;;3.83;2.03;;;;;;;;;;21068561;28;20228;-70
2023/09/12 16:43:44;;;;;;;3.42;1.45;;;;;;;;;;21074828;28;20261;-70
2023/09/12 16:53:46;;;;;;;4.22;2.00;;;;;;;;;;21054138;28;20224;-70
2023/09/12 17:03:58;;;;;;;2.80;1.67;;;29.00;99.90;;;;;;21069681;28;20205;-69
2023/09/12 17:14:00;;;;;;;6.78;2.08;;;;;;;;;;21060066;28;20247;-70
2023/09/12 17:24:01;;;;;;;4.10;1.73;;;;;;;;;;21064144;28;20296;-69
2023/09/12 17:34:03;;;;;;;8.90;2.17;;;;;;;;;;21079396;28;20312;-69
2023/09/12 17:44:06;;;;;;;4.05;1.88;;;;;;;;;;21064347;28;20266;-69
2023/09/12 17:54:07;;;;;;;11.60;2.80;;;;;;;;;;21062697;28;20284;-69
2023/09/12 18:04:09;;;;;;;3.85;1.50;;;;;;;;;;21046381;28;20691;-69
2023/09/12 18:14:11;;;;;;;2.92;1.50;;;;;;;;;;21046763;28;20710;-69
2023/09/12 18:24:13;;;;;;;2.78;1.70;;;;;;;;;;21049759;28;20277;-72
2023/09/12 18:34:18;;;;;;;2.75;1.50;;;;;;;;;;21060910;28;20219;-70
2023/09/12 18:44:20;;;;;;;2.45;1.60;;;;;;;;;;21061158;28;20211;-70
2023/09/12 18:54:22;;;;;;;3.03;1.92;;;27.30;99.90;;;;;;21062635;28;20263;-70
2023/09/12 19:04:29;;;;;;;2.92;1.77;;;;;;;;;;21061571;28;20692;-69
2023/09/12 19:14:31;;;;;;;1.67;1.27;;;;;;;;;;21066289;28;20316;-72
2023/09/12 19:24:33;;;;;;;2.25;1.55;;;;;;;;;;21046567;28;20230;-72
2023/09/12 19:34:35;;;;;;;2.65;1.30;;;;;;;;;;21076967;28;20233;-70
2023/09/12 19:44:40;;;;;;;1.98;1.30;;;;;;;;;;21103051;28;20321;-71
2023/09/12 19:54:42;;;;;;;2.33;1.30;;;;;;;;;;21071661;28;20233;-72
2023/09/12 20:04:44;;;;;;;2.75;1.50;;;;;;;;;;21098238;28;20223;-72
2023/09/12 20:14:45;;;;;;;1.40;1.10;;;;;;;;;;21077165;28;20222;-71
2023/09/12 20:24:47;;;;;;;1.13;0.90;;;;;;;;;;21059759;28;20211;-70
2023/09/12 20:34:49;;;;;;;1.65;0.82;;;;;;;;;;21069362;28;20231;-72
2023/09/12 20:44:51;;;;;;;1.30;0.65;;;;;;;;;;21037000;28;20683;-72
2023/09/12 20:54:53;;;;;;;0.98;0.70;;;;;;;;;;21070662;28;20271;-71
2023/09/12 21:04:55;;;;;;;1.30;0.80;;;;;;;;;;21051887;28;20211;-72
2023/09/12 21:14:56;;;;;;;0.80;0.60;;;;;;;;;;21054068;28;20690;-71
2023/09/12 21:24:58;;;;;;;2.08;0.80;;;;;;;;;;21063285;28;20208;-71
2023/09/12 21:35:10;;;;;;;1.00;0.73;;;;;;;;;;21094825;22;20284;-71
2023/09/12 21:45:13;;;;;;;2.50;0.90;;;;;;;;;;21072904;28;20634;-71
2023/09/12 21:55:14;;;;;;;1.17;0.80;;;;;;;;;;21049226;28;20249;-71
2023/09/12 22:05:16;;;;;;;1.60;0.93;;;;;;;;;;21008072;28;20227;-71
2023/09/12 22:15:19;;;;;;;1.45;1.05;;;;;;;;;;21040993;28;20220;-70
2023/09/12 22:25:21;;;;;;;1.80;0.70;;;;;;;;;;21037020;28;20215;-71
2023/09/12 22:35:23;;;;;;;1.55;0.90;;;;;;;;;;21024809;28;20245;-71
2023/09/12 22:45:25;;;;;;;1.13;0.68;;;;;;;;;;21012383;28;20236;-71
2023/09/12 22:55:27;;;;;;;1.10;0.68;;;;;;;;;;21035690;28;20594;-71
2023/09/12 23:05:29;;;;;;;1.55;0.90;;;;;;;;;;21068574;28;20878;-71
2023/09/12 23:15:31;;;;;;;1.17;0.82;;;;;;;;;;21034451;28;20231;-71
2023/09/12 23:25:34;;;;;;;1.50;1.10;;;;;;;;;;21022746;28;20752;-71
2023/09/12 23:35:36;;;;;;;1.25;0.80;;;;;;;;;;21059871;28;20258;-71
2023/09/12 23:45:38;;;;;;;1.60;1.00;;;;;;;;;;21011103;28;20576;-71
2023/09/12 23:55:40;;;;;;;1.50;1.00;;;;;;;;;;21049469;28;20599;-71
